Terminal Aerodrome Forecast
Issued by NWS

Current Version | Previous Version | Text Only | Print | Product List | Glossary On
Versions: 1 2 3 4 5 6 7 8 9 10 11 12 13
000
FTUS45 KLKN 192300
TAFTPH
TAF
KTPH 192332Z 2000/2024 27009KT P6SM FEW080 SCT250
     FM200600 35009KT P6SM FEW100 SCT250
     FM201800 28007KT P6SM SCT250=

USA.gov is the U.S. government's official web portal to all federal, state and local government web resources and services.